Time;durP1;ratioP1;P1;durP2;ratioP2;P2;SDS_P1;SDS_P2;PMS_P1;PMS_P2;Temp;Humidity;BMP_temperature;BMP_pressure;BME280_temperature;BME280_humidity;BME280_pressure;Samples;Min_cycle;Max_cycle;Signal;HPM_P1;HPM_P2
2022/03/09 00:01:35;;;;;;;22.38;10.15;;;6.30;48.70;;;;;;5055598;28;20028;-83
2022/03/09 00:04:01;;;;;;;22.83;10.95;;;6.50;48.20;;;;;;5073536;28;20111;-86
2022/03/09 00:06:27;;;;;;;23.45;10.55;;;6.40;48.50;;;;;;5055650;28;20154;-83
2022/03/09 00:08:52;;;;;;;20.50;11.43;;;6.50;48.40;;;;;;5055670;28;20115;-82
2022/03/09 00:11:19;;;;;;;21.55;10.60;;;6.60;47.90;;;;;;5073706;28;20085;-82
2022/03/09 00:13:44;;;;;;;21.73;10.77;;;6.60;48.00;;;;;;5073458;28;20024;-81
2022/03/09 00:16:10;;;;;;;22.58;10.50;;;6.50;48.50;;;;;;5073735;28;20039;-82
2022/03/09 00:18:36;;;;;;;21.30;11.23;;;6.50;48.90;;;;;;5055651;28;20359;-80
2022/03/09 00:21:02;;;;;;;25.25;11.93;;;6.60;49.00;;;;;;5052027;28;20025;-84
2022/03/09 00:23:28;;;;;;;21.25;11.05;;;6.50;49.10;;;;;;5053519;28;20361;-82
2022/03/09 00:25:54;;;;;;;21.48;11.45;;;6.70;48.90;;;;;;5038917;28;20048;-82
2022/03/09 00:28:19;;;;;;;23.15;12.10;;;6.60;49.00;;;;;;5053914;28;20029;-81
2022/03/09 00:30:45;;;;;;;24.40;11.82;;;6.50;49.20;;;;;;5044842;28;20173;-81
2022/03/09 00:33:11;;;;;;;24.20;12.05;;;6.50;49.30;;;;;;5055891;28;20021;-84
2022/03/09 00:35:40;;;;;;;23.77;11.98;;;6.50;49.60;;;;;;5057564;28;20036;-82
2022/03/09 00:38:06;;;;;;;23.63;11.80;;;6.50;49.40;;;;;;5035739;28;20033;-82
2022/03/09 00:40:32;;;;;;;28.15;12.70;;;6.50;49.30;;;;;;5035779;28;20029;-83
2022/03/09 00:42:58;;;;;;;24.88;12.65;;;6.40;49.60;;;;;;5036556;28;20025;-83
2022/03/09 00:45:24;;;;;;;24.38;12.18;;;6.50;49.20;;;;;;5035778;28;20381;-84
2022/03/09 00:47:50;;;;;;;25.55;12.55;;;6.50;49.40;;;;;;5069363;28;20021;-82
2022/03/09 00:50:15;;;;;;;25.35;12.38;;;6.80;48.90;;;;;;5055643;28;20083;-82
2022/03/09 00:52:41;;;;;;;23.45;11.75;;;6.80;48.50;;;;;;5073626;28;20036;-82
2022/03/09 00:55:08;;;;;;;23.65;12.15;;;6.60;48.60;;;;;;5055313;28;20436;-83
2022/03/09 00:57:34;;;;;;;21.23;11.93;;;6.10;49.30;;;;;;5075721;28;20060;-80
2022/03/09 00:59:59;;;;;;;24.50;11.80;;;6.00;50.00;;;;;;5058457;28;20021;-82
2022/03/09 01:02:25;;;;;;;24.27;11.70;;;6.50;49.20;;;;;;5059880;28;20028;-82
2022/03/09 01:04:51;;;;;;;24.50;11.65;;;6.70;48.50;;;;;;5069070;28;20024;-82
2022/03/09 01:07:17;;;;;;;22.70;11.40;;;6.70;48.30;;;;;;5039556;28;20056;-81
2022/03/09 01:09:43;;;;;;;24.92;12.65;;;6.60;48.40;;;;;;5058078;28;20033;-83
2022/03/09 01:12:08;;;;;;;21.48;11.32;;;6.70;48.40;;;;;;5058273;28;20031;-83
2022/03/09 01:14:34;;;;;;;23.42;11.00;;;6.60;48.40;;;;;;5071690;28;20032;-86
2022/03/09 01:17:00;;;;;;;24.60;12.10;;;6.60;48.00;;;;;;5058856;28;20103;-88
2022/03/09 01:19:25;;;;;;;24.33;11.02;;;6.40;48.10;;;;;;5068950;28;20025;-83
2022/03/09 01:21:51;;;;;;;21.38;10.73;;;6.30;48.40;;;;;;5039178;28;20021;-83
2022/03/09 01:24:17;;;;;;;19.38;9.73;;;6.30;48.40;;;;;;5063843;28;21353;-82
2022/03/09 01:26:43;;;;;;;21.75;11.48;;;6.60;48.00;;;;;;5071372;28;20044;-83
2022/03/09 01:29:09;;;;;;;21.25;11.02;;;7.00;47.50;;;;;;5048217;28;20032;-84
2022/03/09 01:31:35;;;;;;;21.25;11.30;;;7.30;46.10;;;;;;5045706;28;20124;-83
2022/03/09 01:34:01;;;;;;;21.27;10.10;;;7.50;45.50;;;;;;5043848;28;20024;-83
2022/03/09 01:36:27;;;;;;;19.00;10.27;;;7.60;44.90;;;;;;5076207;28;20045;-83
2022/03/09 01:38:52;;;;;;;22.15;10.68;;;7.60;44.40;;;;;;5050981;28;20407;-82
2022/03/09 01:41:18;;;;;;;19.50;9.93;;;7.60;44.30;;;;;;5060020;28;20521;-82
2022/03/09 01:43:44;;;;;;;20.27;10.32;;;7.30;44.80;;;;;;5045211;28;20383;-82
2022/03/09 01:46:10;;;;;;;18.38;10.63;;;7.00;45.50;;;;;;5048727;28;20379;-82
2022/03/09 01:48:35;;;;;;;18.10;10.27;;;7.30;45.20;;;;;;5054905;28;20020;-81
2022/03/09 01:51:01;;;;;;;21.90;10.85;;;7.60;44.80;;;;;;5055315;28;20021;-81
2022/03/09 01:53:27;;;;;;;17.88;10.05;;;7.80;44.60;;;;;;5056587;28;20379;-81
2022/03/09 01:55:53;;;;;;;17.15;9.65;;;7.60;44.50;;;;;;5038631;28;20567;-82
2022/03/09 01:58:19;;;;;;;20.13;10.73;;;7.30;45.50;;;;;;5056559;28;20025;-82
2022/03/09 02:00:45;;;;;;;18.15;9.80;;;6.80;46.60;;;;;;5038346;28;20025;-82
2022/03/09 02:03:10;;;;;;;23.98;11.75;;;6.20;48.70;;;;;;5041540;28;20020;-82
2022/03/09 02:05:36;;;;;;;21.00;11.88;;;6.00;49.90;;;;;;5058641;28;20024;-81
2022/03/09 02:10:48;;;;;;;22.17;11.20;;;6.00;50.60;;;;;;5076632;28;20065;-81
2022/03/09 02:13:14;;;;;;;22.10;11.77;;;6.10;50.40;;;;;;5058388;28;20064;-81
2022/03/09 02:15:43;;;;;;;22.52;11.55;;;6.30;50.20;;;;;;5058072;28;20059;-80
2022/03/09 02:18:09;;;;;;;21.73;11.43;;;6.20;50.20;;;;;;5075992;28;20046;-81
2022/03/09 02:20:40;;;;;;;22.17;11.48;;;6.20;50.00;;;;;;5057970;28;20028;-81
2022/03/09 02:23:06;;;;;;;22.92;11.63;;;6.50;49.40;;;;;;5054893;28;20067;-81
2022/03/09 02:25:32;;;;;;;20.27;10.93;;;6.50;49.50;;;;;;5043419;28;20064;-81
2022/03/09 02:28:01;;;;;;;24.27;12.32;;;6.60;49.40;;;;;;5074826;28;20071;-81
2022/03/09 02:30:27;;;;;;;25.52;12.98;;;6.90;49.10;;;;;;5044971;28;20560;-81
2022/03/09 02:32:52;;;;;;;23.63;12.80;;;6.80;49.20;;;;;;5052036;28;20115;-81
2022/03/09 02:35:19;;;;;;;23.08;12.48;;;6.70;49.20;;;;;;5053410;28;20079;-81
2022/03/09 02:37:46;;;;;;;23.08;11.90;;;6.40;50.20;;;;;;5037631;28;20116;-79
2022/03/09 02:40:14;;;;;;;23.85;12.90;;;6.10;50.30;;;;;;5037331;28;20384;-81
2022/03/09 02:42:40;;;;;;;24.92;12.00;;;6.20;51.00;;;;;;5037663;28;20029;-80
2022/03/09 02:45:06;;;;;;;25.95;12.52;;;6.10;50.90;;;;;;5055357;28;20116;-81
2022/03/09 02:47:33;;;;;;;27.30;13.15;;;6.40;50.80;;;;;;5044246;28;20495;-82
2022/03/09 02:49:59;;;;;;;22.70;12.80;;;6.40;50.50;;;;;;5057188;28;20032;-80
2022/03/09 02:52:24;;;;;;;24.98;12.70;;;6.20;50.90;;;;;;5057729;28;20025;-82
2022/03/09 02:54:51;;;;;;;24.02;12.38;;;6.20;51.10;;;;;;5074711;28;20048;-81
2022/03/09 02:57:16;;;;;;;27.58;12.65;;;6.10;51.10;;;;;;5056012;28;20142;-82
2022/03/09 02:59:42;;;;;;;25.77;13.45;;;6.00;51.10;;;;;;5056881;28;20029;-81
2022/03/09 03:02:08;;;;;;;24.98;12.93;;;5.90;51.30;;;;;;5057405;28;20028;-82
2022/03/09 03:04:34;;;;;;;22.15;11.20;;;6.20;50.80;;;;;;5041904;28;20535;-82
2022/03/09 03:06:59;;;;;;;27.42;13.45;;;6.30;50.40;;;;;;5037036;28;20029;-81
2022/03/09 03:09:25;;;;;;;25.42;12.77;;;6.30;51.00;;;;;;5055862;28;20036;-79
2022/03/09 03:11:51;;;;;;;23.05;12.02;;;6.20;51.10;;;;;;5054232;28;20483;-82
2022/03/09 03:14:17;;;;;;;26.52;12.90;;;5.90;51.60;;;;;;5056703;28;20090;-81
2022/03/09 03:16:42;;;;;;;24.20;12.70;;;5.80;52.00;;;;;;5062204;28;20114;-83
2022/03/09 03:19:08;;;;;;;24.83;12.75;;;5.80;52.40;;;;;;5065431;28;20475;-82
2022/03/09 03:21:34;;;;;;;24.40;12.57;;;5.70;52.00;;;;;;5056417;28;20497;-81
2022/03/09 03:23:59;;;;;;;22.42;12.15;;;5.70;51.90;;;;;;5046765;28;20418;-82
2022/03/09 03:26:27;;;;;;;24.77;12.02;;;5.90;51.70;;;;;;5048510;28;20043;-82
2022/03/09 03:28:54;;;;;;;22.92;11.95;;;5.70;51.70;;;;;;5056402;28;20074;-83
2022/03/09 03:31:20;;;;;;;25.80;12.60;;;5.60;51.70;;;;;;5056590;28;20559;-83
2022/03/09 03:33:47;;;;;;;22.10;12.13;;;5.40;52.30;;;;;;5051745;28;20447;-81
2022/03/09 03:36:15;;;;;;;20.15;11.65;;;5.60;52.00;;;;;;5054626;28;20606;-82
2022/03/09 03:38:40;;;;;;;24.20;12.15;;;5.60;52.20;;;;;;5055862;28;20479;-85
2022/03/09 03:41:06;;;;;;;26.75;13.20;;;5.80;51.90;;;;;;5055841;28;20059;-83
2022/03/09 03:43:32;;;;;;;30.35;14.43;;;6.00;51.40;;;;;;5055994;28;20066;-82
2022/03/09 03:45:57;;;;;;;27.88;14.60;;;6.30;50.90;;;;;;5067155;28;20032;-83
2022/03/09 03:48:23;;;;;;;31.13;15.27;;;6.60;50.70;;;;;;5068140;28;20073;-82
2022/03/09 03:50:48;;;;;;;24.30;13.25;;;6.90;50.20;;;;;;5073800;28;20031;-82
2022/03/09 03:53:14;;;;;;;24.08;12.23;;;6.80;50.30;;;;;;5056431;28;20033;-83
2022/03/09 03:55:40;;;;;;;20.50;11.23;;;6.40;50.30;;;;;;5074120;28;20094;-83
2022/03/09 03:58:06;;;;;;;23.83;11.05;;;6.10;50.80;;;;;;5073812;28;20102;-81
2022/03/09 04:00:31;;;;;;;22.08;11.93;;;5.90;51.40;;;;;;5056432;28;20082;-82
2022/03/09 04:02:57;;;;;;;21.08;11.15;;;5.90;50.40;;;;;;5055515;28;20025;-83
2022/03/09 04:05:22;;;;;;;22.30;11.57;;;6.30;50.00;;;;;;5053909;28;20399;-82
2022/03/09 04:07:48;;;;;;;23.75;11.73;;;6.70;49.50;;;;;;5053919;28;20464;-82
2022/03/09 04:10:14;;;;;;;26.15;13.63;;;6.70;49.70;;;;;;5053899;28;20025;-82
2022/03/09 04:12:40;;;;;;;24.05;12.43;;;6.90;49.80;;;;;;5036271;28;20028;-82
2022/03/09 04:15:06;;;;;;;24.17;13.02;;;7.00;49.60;;;;;;5035792;28;20124;-82
2022/03/09 04:17:39;;;;;;;27.08;13.65;;;6.80;49.90;;;;;;5036344;28;20476;-83
2022/03/09 04:20:06;;;;;;;21.83;11.57;;;6.70;50.60;;;;;;5045879;28;20493;-82
2022/03/09 04:22:31;;;;;;;20.33;10.95;;;6.80;49.80;;;;;;5073076;28;20031;-82
2022/03/09 04:24:57;;;;;;;23.70;12.30;;;6.70;48.50;;;;;;5054086;28;20028;-82
2022/03/09 04:27:23;;;;;;;24.90;11.65;;;6.70;48.50;;;;;;5040329;28;20057;-82
2022/03/09 04:29:48;;;;;;;26.38;13.13;;;7.00;48.90;;;;;;5053664;28;20526;-82
2022/03/09 04:32:14;;;;;;;25.42;12.93;;;6.80;48.00;;;;;;5035670;28;20391;-81
2022/03/09 04:34:40;;;;;;;26.88;11.68;;;6.70;48.20;;;;;;5045620;28;20032;-83
2022/03/09 04:37:06;;;;;;;23.50;12.35;;;6.50;48.80;;;;;;5036033;28;20049;-81
2022/03/09 04:39:31;;;;;;;31.83;15.18;;;6.30;49.40;;;;;;5035713;28;20043;-83
2022/03/09 04:41:57;;;;;;;32.30;14.60;;;6.50;49.30;;;;;;5069391;28;20020;-80
2022/03/09 04:44:23;;;;;;;23.95;12.43;;;6.50;49.30;;;;;;5053476;28;20107;-81
2022/03/09 04:46:49;;;;;;;31.80;14.00;;;6.70;48.90;;;;;;5042605;28;20128;-83
2022/03/09 04:49:15;;;;;;;26.42;13.38;;;6.90;49.10;;;;;;5044571;28;20356;-81
2022/03/09 04:51:41;;;;;;;32.83;16.00;;;7.00;48.50;;;;;;5055341;28;20035;-81
2022/03/09 04:54:06;;;;;;;28.58;13.98;;;7.00;48.10;;;;;;5055652;28;20352;-85
2022/03/09 04:56:32;;;;;;;23.55;13.27;;;6.90;48.20;;;;;;5055351;28;20150;-84
2022/03/09 04:58:58;;;;;;;22.42;12.98;;;7.00;48.20;;;;;;5055313;28;20039;-83
2022/03/09 05:01:23;;;;;;;32.83;15.10;;;7.20;47.60;;;;;;5073552;28;20054;-81
2022/03/09 05:03:49;;;;;;;31.85;16.23;;;7.10;48.10;;;;;;5055334;28;20414;-85
2022/03/09 05:06:16;;;;;;;32.15;18.42;;;7.00;48.00;;;;;;5055276;28;20025;-83
2022/03/09 05:08:42;;;;;;;29.58;15.30;;;6.80;49.10;;;;;;5072799;28;20036;-81
2022/03/09 05:11:07;;;;;;;29.02;15.13;;;6.80;49.10;;;;;;5055233;28;20021;-81
2022/03/09 05:13:33;;;;;;;29.85;15.23;;;6.70;49.60;;;;;;5073201;28;20100;-83
2022/03/09 05:15:59;;;;;;;25.45;13.50;;;6.90;49.00;;;;;;5054955;28;20036;-82
2022/03/09 05:18:24;;;;;;;25.48;13.45;;;7.00;48.40;;;;;;5054948;28;20483;-82
2022/03/09 05:20:50;;;;;;;26.55;13.55;;;6.90;48.50;;;;;;5073091;28;20111;-83
2022/03/09 05:23:16;;;;;;;30.25;15.05;;;7.10;48.40;;;;;;5055342;28;20517;-82
2022/03/09 05:25:41;;;;;;;25.75;14.85;;;7.10;48.60;;;;;;5072991;28;20506;-83
2022/03/09 05:28:07;;;;;;;30.55;16.40;;;7.10;48.60;;;;;;5054881;28;20023;-81
2022/03/09 05:30:33;;;;;;;26.83;13.48;;;7.00;49.10;;;;;;5054202;28;20123;-82
2022/03/09 05:32:58;;;;;;;36.30;18.88;;;7.00;49.00;;;;;;5054167;28;20111;-79
2022/03/09 05:35:24;;;;;;;30.75;15.18;;;6.90;49.20;;;;;;5065241;28;20371;-82
2022/03/09 05:37:50;;;;;;;36.35;16.73;;;6.80;49.70;;;;;;5034389;28;20033;-81
2022/03/09 05:40:15;;;;;;;51.15;23.95;;;6.90;49.30;;;;;;5046274;28;20029;-83
2022/03/09 05:42:45;;;;;;;43.85;22.35;;;7.00;49.40;;;;;;5054823;28;20052;-82
2022/03/09 05:45:12;;;;;;;26.95;14.40;;;7.30;48.80;;;;;;5058362;28;20029;-83
2022/03/09 05:47:38;;;;;;;54.40;22.33;;;7.30;49.30;;;;;;5054582;28;20054;-86
2022/03/09 05:50:04;;;;;;;34.15;17.13;;;7.10;48.80;;;;;;5076410;28;20067;-82
2022/03/09 05:52:30;;;;;;;30.42;15.40;;;7.00;49.80;;;;;;5068460;28;20037;-83
2022/03/09 05:54:56;;;;;;;29.25;15.40;;;6.60;50.50;;;;;;4362759;28;10000730;-84
2022/03/09 05:57:25;;;;;;;32.70;17.48;;;6.10;50.80;;;;;;5045808;28;20033;-82
2022/03/09 05:59:51;;;;;;;38.83;19.33;;;6.10;52.00;;;;;;5055219;28;20032;-82
2022/03/09 06:02:16;;;;;;;48.22;24.60;;;6.80;51.10;;;;;;5054660;28;20078;-83
2022/03/09 06:04:45;;;;;;;39.83;22.08;;;6.90;49.90;;;;;;5054426;28;20020;-81
2022/03/09 06:07:11;;;;;;;33.75;18.13;;;7.10;49.00;;;;;;5054064;28;20039;-82
2022/03/09 06:09:37;;;;;;;27.13;15.25;;;7.40;48.70;;;;;;5054815;28;20048;-82
2022/03/09 06:12:03;;;;;;;26.38;15.02;;;7.50;48.30;;;;;;5054378;28;20056;-81
2022/03/09 06:14:28;;;;;;;31.10;15.25;;;7.00;48.10;;;;;;5072248;28;20330;-81
2022/03/09 06:16:54;;;;;;;31.77;14.45;;;6.80;49.10;;;;;;5071782;28;20045;-80
2022/03/09 06:19:20;;;;;;;28.45;14.85;;;6.80;49.10;;;;;;5054536;28;20051;-81
2022/03/09 06:21:45;;;;;;;27.10;14.48;;;7.00;48.90;;;;;;5073334;28;20025;-82
2022/03/09 06:24:12;;;;;;;29.58;15.45;;;7.20;48.50;;;;;;5055815;28;20025;-82
2022/03/09 06:26:38;;;;;;;28.83;15.25;;;7.40;48.20;;;;;;5056826;28;20103;-81
2022/03/09 06:29:05;;;;;;;29.33;15.95;;;7.60;48.00;;;;;;5056790;28;20119;-81
2022/03/09 06:31:31;;;;;;;27.45;14.48;;;7.60;48.20;;;;;;5055629;28;20024;-80
2022/03/09 06:33:59;;;;;;;28.70;15.60;;;7.70;47.70;;;;;;5056823;28;20048;-84
2022/03/09 06:36:25;;;;;;;83.45;37.90;;;8.00;48.10;;;;;;5056017;28;20049;-84
2022/03/09 06:38:51;;;;;;;61.50;35.22;;;8.30;47.40;;;;;;5057969;28;20024;-83
2022/03/09 06:41:17;;;;;;;35.15;19.45;;;8.20;48.10;;;;;;5057985;28;20115;-81
2022/03/09 06:43:43;;;;;;;29.77;16.48;;;8.50;47.60;;;;;;5057290;28;20031;-80
2022/03/09 06:46:09;;;;;;;27.95;15.60;;;8.40;47.40;;;;;;5057316;28;20020;-81
2022/03/09 06:48:35;;;;;;;36.13;18.17;;;8.20;47.30;;;;;;5057259;28;20021;-82
2022/03/09 06:51:01;;;;;;;37.47;18.58;;;8.20;47.90;;;;;;5057106;28;20390;-82
2022/03/09 06:53:27;;;;;;;29.90;17.98;;;8.70;47.20;;;;;;5057475;28;20021;-85
2022/03/09 06:55:52;;;;;;;34.17;19.20;;;8.90;46.40;;;;;;5074831;28;20051;-79
2022/03/09 06:58:18;;;;;;;32.92;18.10;;;8.80;46.30;;;;;;5056887;28;20031;-79
2022/03/09 07:00:44;;;;;;;30.02;15.90;;;8.80;46.90;;;;;;5074477;28;20403;-81
2022/03/09 07:03:10;;;;;;;28.77;16.90;;;8.50;47.40;;;;;;5056514;28;20024;-79
2022/03/09 07:05:35;;;;;;;31.60;16.58;;;8.40;47.80;;;;;;5056421;28;20029;-79
2022/03/09 07:08:01;;;;;;;29.83;16.77;;;8.50;47.60;;;;;;5056147;28;20017;-80
2022/03/09 07:10:27;;;;;;;25.60;15.40;;;8.90;47.10;;;;;;5074334;28;20031;-80
2022/03/09 07:12:53;;;;;;;29.23;16.70;;;9.10;45.30;;;;;;5056683;28;20047;-81
2022/03/09 07:15:19;;;;;;;29.20;16.17;;;8.80;45.60;;;;;;5056413;28;20028;-82
2022/03/09 07:17:47;;;;;;;28.42;16.52;;;8.90;46.10;;;;;;5074631;28;20032;-83
2022/03/09 07:20:14;;;;;;;30.25;16.77;;;8.60;45.70;;;;;;5056406;28;20024;-82
2022/03/09 07:22:40;;;;;;;30.85;17.88;;;8.20;47.40;;;;;;5056244;28;20025;-81
2022/03/09 07:25:07;;;;;;;30.08;17.02;;;8.60;47.20;;;;;;5074293;28;20020;-84
2022/03/09 07:27:33;;;;;;;31.00;18.00;;;8.90;46.40;;;;;;5074242;28;20052;-79
2022/03/09 07:29:58;;;;;;;32.38;17.27;;;9.00;46.20;;;;;;5055852;28;20017;-80
2022/03/09 07:32:24;;;;;;;31.42;17.23;;;9.00;46.50;;;;;;5055781;28;20025;-79
2022/03/09 07:34:50;;;;;;;30.92;16.63;;;8.80;46.90;;;;;;5056214;28;20024;-82
2022/03/09 07:37:16;;;;;;;32.60;18.05;;;9.00;46.60;;;;;;5055955;28;20533;-80
2022/03/09 07:39:41;;;;;;;31.92;17.60;;;9.50;45.60;;;;;;5055576;28;20025;-79
2022/03/09 07:42:07;;;;;;;33.13;17.13;;;10.00;44.90;;;;;;5055585;28;20033;-80
2022/03/09 07:44:33;;;;;;;28.85;17.73;;;10.10;44.40;;;;;;5055791;28;20025;-79
2022/03/09 07:46:58;;;;;;;32.75;18.60;;;10.30;44.60;;;;;;5055381;28;20046;-78
2022/03/09 07:49:25;;;;;;;29.38;17.40;;;10.60;44.50;;;;;;5073525;28;20025;-80
2022/03/09 07:51:50;;;;;;;34.83;18.35;;;10.60;44.40;;;;;;5055777;28;20403;-82
2022/03/09 07:54:16;;;;;;;31.63;18.30;;;10.40;44.40;;;;;;5073196;28;20460;-80
2022/03/09 07:56:43;;;;;;;28.83;17.88;;;10.80;44.00;;;;;;5073258;28;20037;-80
2022/03/09 07:59:10;;;;;;;73.60;36.33;;;11.00;43.20;;;;;;5073194;28;20032;-79
2022/03/09 08:01:37;;;;;;;110.25;48.60;;;11.00;43.20;;;;;;5073016;28;20024;-79
2022/03/09 08:04:03;;;;;;;77.72;35.58;;;11.20;43.40;;;;;;5055229;28;20050;-79
2022/03/09 08:06:29;;;;;;;56.72;29.20;;;11.80;43.50;;;;;;5054793;28;20028;-80
2022/03/09 08:08:55;;;;;;;69.88;34.47;;;12.00;42.20;;;;;;5054967;28;20027;-79
2022/03/09 08:11:22;;;;;;;42.55;21.58;;;12.30;42.20;;;;;;5055206;28;20036;-80
2022/03/09 08:13:48;;;;;;;55.55;30.25;;;12.80;41.50;;;;;;5073352;28;20020;-79
2022/03/09 08:16:14;;;;;;;71.05;42.92;;;13.40;40.50;;;;;;5055012;28;20033;-79
2022/03/09 08:18:39;;;;;;;31.35;19.45;;;13.50;40.70;;;;;;5055023;28;20027;-79
2022/03/09 08:21:05;;;;;;;39.83;21.85;;;13.70;40.10;;;;;;5055037;28;20474;-81
2022/03/09 08:23:31;;;;;;;29.88;17.98;;;14.30;39.50;;;;;;5055104;28;20027;-80
2022/03/09 08:25:57;;;;;;;31.60;19.52;;;14.00;40.00;;;;;;5054997;28;20137;-80
2022/03/09 08:28:22;;;;;;;32.92;19.45;;;13.60;40.00;;;;;;4011436;28;10000716;-80
2022/03/09 08:30:48;;;;;;;36.33;21.25;;;13.20;40.60;;;;;;5071172;28;20028;-80
2022/03/09 08:33:14;;;;;;;49.00;23.02;;;12.90;41.00;;;;;;5073840;28;20024;-79
2022/03/09 08:35:41;;;;;;;31.67;19.20;;;12.90;41.40;;;;;;5074149;28;20055;-79
2022/03/09 08:38:06;;;;;;;33.83;19.70;;;12.70;41.70;;;;;;5075162;28;20024;-79
2022/03/09 08:40:32;;;;;;;39.78;22.42;;;12.50;42.00;;;;;;5074914;28;20024;-80
2022/03/09 08:42:58;;;;;;;32.17;19.27;;;12.50;42.30;;;;;;5075047;28;20064;-79
2022/03/09 08:45:24;;;;;;;33.08;19.90;;;12.90;41.90;;;;;;5093211;28;20028;-80
2022/03/09 08:47:49;;;;;;;35.50;19.77;;;12.70;41.70;;;;;;5074793;28;20021;-79
2022/03/09 08:50:15;;;;;;;32.47;20.08;;;12.90;41.50;;;;;;5092956;28;20062;-79
2022/03/09 08:52:41;;;;;;;31.33;18.52;;;13.10;42.00;;;;;;5093120;28;20467;-80
2022/03/09 08:55:07;;;;;;;30.35;19.70;;;13.70;41.00;;;;;;5092654;28;20028;-80
2022/03/09 08:57:36;;;;;;;29.38;19.48;;;13.90;40.60;;;;;;5092302;28;20537;-80
2022/03/09 09:00:04;;;;;;;30.58;18.77;;;13.50;41.20;;;;;;5075091;28;20386;-80
2022/03/09 09:02:30;;;;;;;32.60;19.38;;;14.00;40.70;;;;;;5074883;28;20070;-82
2022/03/09 09:04:57;;;;;;;27.98;18.08;;;14.40;40.30;;;;;;5092732;28;20020;-80
2022/03/09 09:07:23;;;;;;;28.73;17.10;;;14.80;39.70;;;;;;5074915;28;20479;-81
2022/03/09 09:09:49;;;;;;;26.95;16.83;;;14.20;39.80;;;;;;5092835;28;20107;-80
2022/03/09 09:12:15;;;;;;;27.38;16.90;;;14.70;40.40;;;;;;5092636;28;20467;-81
2022/03/09 09:14:40;;;;;;;27.15;16.80;;;15.50;38.80;;;;;;5074759;28;20023;-81
2022/03/09 09:17:07;;;;;;;25.98;16.65;;;16.30;38.60;;;;;;5074992;28;20078;-81
2022/03/09 09:19:33;;;;;;;27.33;17.25;;;17.10;37.50;;;;;;5078406;28;20024;-83
2022/03/09 09:21:59;;;;;;;28.20;16.45;;;17.00;36.90;;;;;;5078081;28;20482;-80
2022/03/09 09:24:25;;;;;;;28.08;17.55;;;16.10;38.20;;;;;;5078580;28;20031;-82
2022/03/09 09:26:50;;;;;;;25.65;17.08;;;16.40;38.30;;;;;;5096329;28;20032;-82
2022/03/09 09:29:16;;;;;;;29.20;17.92;;;17.10;37.80;;;;;;5096855;28;20467;-82
2022/03/09 09:31:42;;;;;;;27.90;17.65;;;17.50;36.80;;;;;;5096734;28;20024;-81
2022/03/09 09:34:08;;;;;;;28.30;18.20;;;17.40;37.20;;;;;;5096514;28;20052;-82
2022/03/09 09:36:34;;;;;;;28.02;18.50;;;18.10;37.20;;;;;;5078178;28;20135;-81
2022/03/09 09:39:00;;;;;;;29.48;19.08;;;17.80;36.60;;;;;;5078621;28;20028;-86
2022/03/09 09:41:27;;;;;;;28.08;18.85;;;18.20;36.90;;;;;;5096378;28;20081;-80
2022/03/09 09:43:53;;;;;;;29.17;18.05;;;18.50;36.60;;;;;;5096289;28;20024;-83
2022/03/09 09:46:18;;;;;;;29.17;19.02;;;18.60;36.50;;;;;;5078223;28;20433;-82
2022/03/09 09:48:44;;;;;;;30.33;19.83;;;19.40;36.20;;;;;;5096273;28;20024;-83
2022/03/09 09:51:12;;;;;;;29.20;18.58;;;21.00;35.30;;;;;;5077751;28;20024;-81
2022/03/09 09:53:42;;;;;;;29.35;18.33;;;21.20;35.00;;;;;;5077868;28;20051;-81
2022/03/09 09:56:09;;;;;;;26.63;18.13;;;22.10;34.40;;;;;;5078065;28;20035;-82
2022/03/09 09:58:36;;;;;;;26.73;18.40;;;23.00;34.10;;;;;;5077750;28;20031;-82
2022/03/09 10:01:03;;;;;;;27.13;19.20;;;23.00;33.90;;;;;;5077915;28;20073;-81
2022/03/09 10:03:28;;;;;;;33.50;19.15;;;24.00;33.50;;;;;;5095969;28;20107;-83
2022/03/09 10:05:54;;;;;;;27.58;19.02;;;24.50;33.00;;;;;;5077668;28;20119;-84
2022/03/09 10:08:20;;;;;;;28.20;20.58;;;25.00;32.80;;;;;;5078120;28;20028;-82
2022/03/09 10:10:56;;;;;;;24.35;17.80;;;25.80;32.40;;;;;;5095963;28;20028;-82
2022/03/09 10:13:27;;;;;;;25.23;17.50;;;25.90;32.80;;;;;;5077708;28;20026;-84
2022/03/09 10:16:18;;;;;;;23.40;16.95;;;25.70;32.10;;;;;;5077881;28;20486;-84
2022/03/09 10:18:56;;;;;;;25.25;17.73;;;24.40;32.40;;;;;;5078124;28;20497;-84
2022/03/09 10:21:26;;;;;;;23.80;17.80;;;23.30;33.20;;;;;;5078417;28;20048;-81
2022/03/09 10:23:54;;;;;;;32.88;23.38;;;23.10;34.00;;;;;;5077609;28;20036;-83
2022/03/09 10:26:23;;;;;;;23.58;16.40;;;23.40;33.60;;;;;;5095682;28;20077;-85
2022/03/09 10:29:16;;;;;;;23.23;15.95;;;23.20;33.20;;;;;;5077251;28;20032;-83
2022/03/09 10:31:43;;;;;;;23.23;16.88;;;23.90;33.50;;;;;;5093950;28;20029;-83
2022/03/09 10:34:13;;;;;;;24.08;16.48;;;24.90;32.80;;;;;;5077338;28;20024;-84
2022/03/09 10:36:58;;;;;;;25.98;17.30;;;25.70;32.10;;;;;;5077330;28;20046;-82
2022/03/09 10:39:27;;;;;;;22.90;16.10;;;25.20;32.70;;;;;;5077162;28;20028;-82
2022/03/09 10:41:53;;;;;;;27.70;17.00;;;25.90;32.80;;;;;;5095459;28;20028;-82
2022/03/09 10:44:19;;;;;;;23.23;16.05;;;25.70;31.90;;;;;;5077178;28;20027;-84
2022/03/09 10:46:50;;;;;;;22.67;16.23;;;24.70;33.20;;;;;;5095652;28;20491;-87
2022/03/09 10:49:24;;;;;;;20.70;15.57;;;24.80;32.30;;;;;;5076983;28;20028;-82
2022/03/09 10:51:51;;;;;;;20.42;14.68;;;25.40;32.60;;;;;;5095239;28;20020;-82
2022/03/09 10:54:27;;;;;;;17.65;13.52;;;26.00;31.90;;;;;;5077075;28;20425;-83
2022/03/09 10:57:13;;;;;;;17.95;12.57;;;25.60;32.10;;;;;;5077187;28;20039;-82
2022/03/09 10:59:44;;;;;;;15.98;10.98;;;25.80;32.50;;;;;;5076410;28;20055;-80
2022/03/09 11:02:11;;;;;;;15.80;10.90;;;24.70;31.50;;;;;;5076991;28;20467;-84
2022/03/09 11:04:38;;;;;;;13.88;10.65;;;23.10;33.40;;;;;;5076770;28;20031;-80
2022/03/09 11:07:04;;;;;;;16.40;10.50;;;22.30;33.80;;;;;;5094720;28;20107;-82
2022/03/09 11:09:30;;;;;;;17.02;11.05;;;22.20;34.20;;;;;;5094470;28;20049;-81
2022/03/09 11:11:56;;;;;;;16.20;10.88;;;22.70;34.20;;;;;;5076815;28;20024;-80
2022/03/09 11:14:26;;;;;;;14.00;10.77;;;23.80;33.30;;;;;;5094621;28;20489;-82
2022/03/09 11:16:54;;;;;;;15.93;10.13;;;22.90;33.20;;;;;;5076566;28;20189;-81
2022/03/09 11:19:20;;;;;;;16.05;11.07;;;21.30;34.50;;;;;;5076402;28;20024;-81
2022/03/09 11:21:47;;;;;;;15.40;10.43;;;21.20;34.70;;;;;;5094433;28;20136;-82
2022/03/09 11:24:15;;;;;;;16.17;11.30;;;20.50;36.00;;;;;;5076380;28;20387;-81
2022/03/09 11:27:02;;;;;;;16.90;11.13;;;19.40;36.30;;;;;;5076310;28;20028;-83
2022/03/09 11:29:35;;;;;;;18.25;12.00;;;18.60;36.80;;;;;;5076262;28;20023;-81
2022/03/09 11:32:02;;;;;;;34.13;25.52;;;17.70;38.10;;;;;;5076219;28;20061;-81
2022/03/09 11:34:31;;;;;;;12.20;9.00;;;17.40;37.70;;;;;;5076485;28;20132;-83
2022/03/09 11:37:08;;;;;;;14.65;9.70;;;16.80;38.20;;;;;;5094215;28;20084;-82
2022/03/09 11:39:35;;;;;;;14.02;10.13;;;16.90;39.60;;;;;;5094446;28;20051;-81
2022/03/09 11:42:19;;;;;;;16.73;10.57;;;17.10;39.10;;;;;;5075428;28;20483;-82
2022/03/09 11:44:49;;;;;;;13.75;9.48;;;17.30;39.20;;;;;;5093796;28;20085;-82
2022/03/09 11:47:16;;;;;;;11.85;8.40;;;17.80;39.20;;;;;;5094218;28;20066;-82
2022/03/09 11:49:42;;;;;;;12.45;8.65;;;18.00;37.70;;;;;;5093895;28;20039;-81
2022/03/09 11:52:13;;;;;;;10.57;8.13;;;18.40;37.40;;;;;;5075416;28;20016;-82
2022/03/09 11:54:44;;;;;;;15.43;9.68;;;18.40;37.40;;;;;;5093926;28;20080;-82
2022/03/09 11:57:12;;;;;;;16.73;9.82;;;18.70;37.20;;;;;;5075842;28;20113;-81
2022/03/09 11:59:37;;;;;;;15.80;9.52;;;18.70;37.10;;;;;;5093951;28;20431;-83
2022/03/09 12:02:09;;;;;;;15.23;9.32;;;18.90;37.30;;;;;;5076200;28;20486;-80
2022/03/09 12:04:53;;;;;;;10.40;6.13;;;18.10;37.60;;;;;;5075806;28;20490;-82
2022/03/09 12:07:27;;;;;;;12.25;7.20;;;17.50;36.80;;;;;;5075561;28;20065;-80
2022/03/09 12:09:57;;;;;;;12.77;7.10;;;17.00;37.40;;;;;;5075537;28;20024;-81
2022/03/09 12:12:27;;;;;;;11.77;7.72;;;17.20;37.60;;;;;;5075596;28;20063;-83
2022/03/09 12:15:00;;;;;;;13.10;8.82;;;16.70;38.60;;;;;;5075878;28;20032;-81
2022/03/09 12:17:37;;;;;;;14.43;9.90;;;16.10;40.10;;;;;;5075416;28;20032;-80
2022/03/09 12:20:31;;;;;;;14.35;8.98;;;15.70;39.70;;;;;;5075869;28;20016;-87
2022/03/09 12:22:57;;;;;;;15.27;9.57;;;16.10;39.80;;;;;;5076017;28;20475;-86
2022/03/09 12:25:41;;;;;;;16.05;10.00;;;16.40;39.20;;;;;;5075804;28;20034;-87
2022/03/09 12:28:25;;;;;;;14.43;9.23;;;17.10;38.90;;;;;;5075834;28;20059;-86
2022/03/09 12:30:57;;;;;;;16.30;9.80;;;17.20;38.40;;;;;;5075574;28;20032;-81
2022/03/09 12:33:30;;;;;;;17.88;11.20;;;17.60;38.30;;;;;;5075660;28;20470;-81
2022/03/09 12:36:12;;;;;;;14.43;9.20;;;17.30;38.80;;;;;;5092962;28;20483;-81